Shinkai Maru — JJ4012 — position and weather

sailwx.info

Track history (hours):
 
Tides and Currents Weather Stations Pressure Air Temp Water Temp Dewpoint Dewpoint Depression Visibility Wind Speed Wind Dir Waves Ship Positions

Shinkai Maru

Last reported at 2015-May-29 10:31 UTC. Time now 2015-May-30 06:27 UTC.
Position N 35°05' E 139°36'.

Length 76 m; draft 4.2 m.

Type: Cargo ship. MMSI: 431301346.

Date/timePositionNaut miles runAvg speedWind from/ knotsBaromVisibWave heightAir tempDewpointWater temp
2015-May-29 10:31N 35°05' E 139°36'1212.9
2015-May-29 09:33N 35°14' E 139°46'1111.0
2015-May-29 08:33N 35°25' E 139°43'1312.8
2015-May-29 07:33N 35°34' E 139°55'7 6.5
2015-May-29 06:24N 35°41' E 139°58'0 0.0
2015-May-29 05:27N 35°41' E 139°58'0 0.0
2015-May-29 04:30N 35°41' E 139°58'0 0.0
2015-May-29 03:33N 35°41' E 139°58'0 0.0
2015-May-29 02:33N 35°41' E 139°58'0 0.0
2015-May-29 01:33N 35°41' E 139°58'0 0.0
2015-May-29 00:33N 35°41' E 139°58'0 0.0
2015-May-28 23:30N 35°41' E 139°58'0 0.0
2015-May-28 22:33N 35°41' E 139°58'1 0.7
2015-May-28 21:33N 35°40' E 139°57'10 9.9
2015-May-28 20:33N 35°31' E 139°53'1111.2
2015-May-28 19:33N 35°22' E 139°45'1010.5
2015-May-28 18:33N 35°11' E 139°47'1111.3
2015-May-28 17:33N 35°02' E 139°39'235 9.3
2015-May-27 16:18N 34°14' E 134°58'912.3
2015-May-27 15:34N 34°23' E 135°00'1312.3
2015-May-27 14:33N 34°36' E 135°03'1212.3
2015-May-27 13:33N 34°40' E 134°49'0 0.0
2015-May-27 03:03N 34°41' E 134°49'5 9.2
2015-May-27 02:29N 34°37' E 134°54'910.0
2015-May-27 01:33N 34°36' E 135°05'1111.1
2015-May-27 00:33N 34°33' E 135°18'3 1.7
2015-May-26 22:33N 34°32' E 135°22'1110.6
2015-May-26 21:33N 34°26' E 135°11'1311.8
2015-May-26 20:29N 34°18' E 134°60'1212.2
2015-May-26 19:31N 34°06' E 134°59'8 0.2
2015-May-24 21:32N 34°14' E 134°59'1312.9
2015-May-24 20:32N 34°27' E 135°01'11 9.0
2015-May-24 19:21N 34°37' E 134°56'7 0.3
2015-May-23 19:32N 34°41' E 134°49'3 0.1
2015-May-22 08:06N 34°39' E 134°51'510.1
2015-May-22 07:33N 34°38' E 134°58'9 9.1
2015-May-22 06:33N 34°37' E 135°09'2 1.7
2015-May-22 05:33N 34°35' E 135°09'1411.9
2015-May-22 04:23N 34°23' E 135°03'1011.6
2015-May-22 03:33N 34°13' E 134°59'1312.1
2015-May-22 02:29N 34°01' E 135°01'237 7.4
2015-May-20 18:20N 34°51' E 139°42'1311.7
2015-May-20 17:16N 34°53' E 139°57'811.5
2015-May-20 16:33N 34°57' E 140°05'3510.2
2015-May-20 13:09N 35°21' E 140°36'711.5
2015-May-20 12:32N 35°27' E 140°42'1111.6
2015-May-20 11:33N 35°36' E 140°50'1110.8
2015-May-20 10:33N 35°46' E 140°54'1211.7
2015-May-20 09:33N 35°56' E 140°46'5 0.4
2015-May-19 21:19N 35°56' E 140°40'0 0.0
2015-May-19 20:07N 35°56' E 140°40'0 0.0
2015-May-19 19:07N 35°56' E 140°40'0 0.0
2015-May-19 18:22N 35°56' E 140°40'0 0.0
2015-May-19 17:28N 35°56' E 140°40'0 0.0
2015-May-19 16:22N 35°56' E 140°40'  
Track history (hours):
 
Tides and Currents Weather Stations Pressure Air Temp Water Temp Dewpoint Dewpoint Depression Visibility Wind Speed Wind Dir Waves Ship Positions

Shinkai Maru

Last reported at 2015-May-29 10:31 UTC. Time now 2015-May-30 06:27 UTC.
Position N 35°05' E 139°36'.

Length 76 m; draft 4.2 m.

Type: Cargo ship. MMSI: 431301346.

Date/timePositionNaut miles runAvg speedWind from/ knotsBaromVisibWave heightAir tempDewpointWater temp
2015-May-29 10:31N 35°05' E 139°36'1212.9
2015-May-29 09:33N 35°14' E 139°46'1111.0
2015-May-29 08:33N 35°25' E 139°43'1312.8
2015-May-29 07:33N 35°34' E 139°55'7 6.5
2015-May-29 06:24N 35°41' E 139°58'0 0.0
2015-May-29 05:27N 35°41' E 139°58'0 0.0
2015-May-29 04:30N 35°41' E 139°58'0 0.0
2015-May-29 03:33N 35°41' E 139°58'0 0.0
2015-May-29 02:33N 35°41' E 139°58'0 0.0
2015-May-29 01:33N 35°41' E 139°58'0 0.0
2015-May-29 00:33N 35°41' E 139°58'0 0.0
2015-May-28 23:30N 35°41' E 139°58'0 0.0
2015-May-28 22:33N 35°41' E 139°58'1 0.7
2015-May-28 21:33N 35°40' E 139°57'10 9.9
2015-May-28 20:33N 35°31' E 139°53'1111.2
2015-May-28 19:33N 35°22' E 139°45'1010.5
2015-May-28 18:33N 35°11' E 139°47'1111.3
2015-May-28 17:33N 35°02' E 139°39'235 9.3
2015-May-27 16:18N 34°14' E 134°58'912.3
2015-May-27 15:34N 34°23' E 135°00'1312.3
2015-May-27 14:33N 34°36' E 135°03'1212.3
2015-May-27 13:33N 34°40' E 134°49'0 0.0
2015-May-27 03:03N 34°41' E 134°49'5 9.2
2015-May-27 02:29N 34°37' E 134°54'910.0
2015-May-27 01:33N 34°36' E 135°05'1111.1
2015-May-27 00:33N 34°33' E 135°18'3 1.7
2015-May-26 22:33N 34°32' E 135°22'1110.6
2015-May-26 21:33N 34°26' E 135°11'1311.8
2015-May-26 20:29N 34°18' E 134°60'1212.2
2015-May-26 19:31N 34°06' E 134°59'8 0.2
2015-May-24 21:32N 34°14' E 134°59'1312.9
2015-May-24 20:32N 34°27' E 135°01'11 9.0
2015-May-24 19:21N 34°37' E 134°56'7 0.3
2015-May-23 19:32N 34°41' E 134°49'3 0.1
2015-May-22 08:06N 34°39' E 134°51'510.1
2015-May-22 07:33N 34°38' E 134°58'9 9.1
2015-May-22 06:33N 34°37' E 135°09'2 1.7
2015-May-22 05:33N 34°35' E 135°09'1411.9
2015-May-22 04:23N 34°23' E 135°03'1011.6
2015-May-22 03:33N 34°13' E 134°59'1312.1
2015-May-22 02:29N 34°01' E 135°01'237 7.4
2015-May-20 18:20N 34°51' E 139°42'1311.7
2015-May-20 17:16N 34°53' E 139°57'811.5
2015-May-20 16:33N 34°57' E 140°05'3510.2
2015-May-20 13:09N 35°21' E 140°36'711.5
2015-May-20 12:32N 35°27' E 140°42'1111.6
2015-May-20 11:33N 35°36' E 140°50'1110.8
2015-May-20 10:33N 35°46' E 140°54'1211.7
2015-May-20 09:33N 35°56' E 140°46'5 0.4
2015-May-19 21:19N 35°56' E 140°40'0 0.0
2015-May-19 20:07N 35°56' E 140°40'0 0.0
2015-May-19 19:07N 35°56' E 140°40'0 0.0
2015-May-19 18:22N 35°56' E 140°40'0 0.0
2015-May-19 17:28N 35°56' E 140°40'0 0.0
2015-May-19 16:22N 35°56' E 140°40'  

Dump ship's entire track history